• Join FlightAware (Why Join?)
  • Login
  • US Flag 
02:40AM EDT


 

Airport Tracker/Info


-or-


 

Live Flight TrackerFlight Track Log ✈ UAL5832 ✈ 15-Apr-2013 ✈ KORD - KBNA

Flight Track Log - Related Links

Times and Time Zones

All times are in EDT time to prevent confusion due to time zone crossing. See the UAL5832 flight status page for this flight to view local times or setup timezone preferences in your user account.

Time Position Orientation Groundspeed Altitude Reporting Facility
EDT Latitude Longitude Course Direction KTS MPH feet Rate Location/Type
11:27PM 42.0000 -87.9500 176° South 169 194 2,200  Level Chicago TRACON
11:28PM 42.0000 -88.0000 270° West 237 273 3,800 2,580 Climbing Chicago TRACON
11:29PM 41.9333 -88.0000 180° South 244 281 7,400 2,700 Climbing Chicago TRACON
11:31PM 41.8403 -87.9731 168° South 237 273 10,200 1,980 Climbing Chicago Center
11:32PM 41.7703 -87.9569 170° South 253 291 12,100 1,740 Climbing Chicago Center
11:33PM 41.4996 -87.7973 176° South  Level Estimated
11:33PM 41.6947 -87.9400 170° South 272 313 13,800  Level Chicago Center
11:34PM 41.6125 -87.9217 171° South 296 341 15,000 1,080 Climbing Chicago Center
11:35PM 41.5228 -87.9017 171° South 323 372 16,100 1,080 Climbing Chicago Center
11:36PM 41.4269 -87.8806 171° South 340 391 17,200 1,200 Climbing Chicago Center
11:37PM 41.3308 -87.8856 182° South 339 390 18,600 1,140 Climbing Chicago Center
11:38PM 41.2336 -87.8936 184° South 345 397 19,600 1,020 Climbing Chicago Center
11:39PM 41.1308 -87.8636 168° South 384 442 20,700 1,020 Climbing Chicago Center
11:40PM 41.0275 -87.8236 164° South 387 445 21,700 1,020 Climbing Chicago Center
11:41PM 40.9219 -87.7833 164° South 394 453 22,800 1,080 Climbing Chicago Center
11:42PM 40.8150 -87.7478 166° South 399 459 24,000 1,140 Climbing Chicago Center
11:43PM 40.7081 -87.7339 174° South 389 448 25,200 1,140 Climbing Chicago Center
11:44PM 40.6042 -87.7181 173° South 381 438 26,400 1,140 Climbing Chicago Center
11:45PM 40.4989 -87.7017 173° South 383 441 27,600 1,320 Climbing Chicago Center
11:46PM 40.3731 -87.6847 174° South 380 437 29,100 1,320 Climbing Chicago Center
11:47PM 40.2975 -87.6736 174° South 376 433 30,000 1,200 Climbing Indianapolis Center
11:48PM 40.1942 -87.6569 173° South 374 430 31,200 1,140 Climbing Indianapolis Center
11:49PM 40.0906 -87.6417 174° South 372 428 32,400 840 Climbing Indianapolis Center
11:50PM 39.9847 -87.6253 173° South 378 435 33,000 240 Climbing Indianapolis Center
11:51PM 39.8717 -87.6100 174° South 398 458 33,000  Level Indianapolis Center
11:52PM 39.7547 -87.5922 173° South 417 480 33,000  Level Indianapolis Center
11:53PM 39.6347 -87.5756 174° South 427 491 33,000  Level Indianapolis Center
11:54PM 39.5142 -87.5567 173° South 433 498 33,000  Level Indianapolis Center
11:55PM 39.3950 -87.5403 174° South 428 493 33,000  Level Indianapolis Center
11:56PM 39.2783 -87.5236 174° South 421 484 33,000  Level Indianapolis Center
11:57PM 39.1603 -87.5078 174° South 424 488 33,000  Level Indianapolis Center
11:58PM 39.0419 -87.4906 174° South 426 490 33,000  Level Indianapolis Center
11:59PM 38.9239 -87.4736 174° South 425 489 33,000  Level Indianapolis Center
12:00AM 38.8058 -87.4575 174° South 425 489 33,000  Level Indianapolis Center
12:01AM 38.6878 -87.4403 174° South 426 490 33,000  Level Indianapolis Center
12:02AM 38.5708 -87.4244 174° South 425 489 33,000  Level Indianapolis Center
12:03AM 38.4536 -87.4072 173° South 425 489 33,000  Level Indianapolis Center
12:04AM 38.3372 -87.3911 174° South 425 489 33,000  Level Indianapolis Center
12:05AM 38.1981 -87.3725 174° South 423 487 33,000  Level Indianapolis Center
12:06AM 38.0806 -87.3575 174° South 425 489 33,000  Level Indianapolis Center
12:07AM 37.9617 -87.3392 173° South 430 495 33,000 -780 Level Indianapolis Center
12:08AM 37.8436 -87.3225 174° South 428 493 31,500 -1,980 Descending Indianapolis Center
12:09AM 37.7269 -87.3094 175° South 429 494 29,100 -2,520 Descending Indianapolis Center
12:10AM 37.6078 -87.2908 173° South 428 493 26,500 -2,520 Descending Indianapolis Center
12:11AM 37.5397 -87.2839 175° South 433 498 25,300 -2,220 Descending Memphis Center
12:12AM 37.4203 -87.2650 173° South 433 498 23,200 -1,200 Descending Memphis Center
12:13AM 37.3053 -87.2408 171° South 427 491 23,000 -180 Descending Memphis Center
12:13AM 37.2464 -87.2250 168° South 423 487 23,000  Level Memphis Center
12:13AM 37.2089 -87.2161 169° South 425 489 23,000 -660 Level Memphis Center
12:14AM 37.0975 -87.1814 166° South 429 494 22,200 -1,740 Descending Memphis Center
12:15AM 36.9778 -87.1497 168° South 422 486 19,600 -2,520 Descending Memphis Center
12:16AM 36.8728 -87.1178 166° South 401 461 17,200 -2,460 Descending Memphis Center
12:18AM 36.7525 -87.0606 159° South 395 455 14,200 -2,580 Descending Memphis Center
12:19AM 36.6636 -87.0047 153° Southeast 370 426 11,600 -1,980 Descending Memphis Center
12:20AM 36.5808 -86.9539 154° Southeast 340 391 10,300 -1,200 Descending Memphis Center
12:21AM 36.5192 -86.9072 149° Southeast 306 352 9,200 -1,440 Descending Memphis Center
12:22AM 36.4550 -86.8533 146° Southeast 282 325 7,500 -1,620 Descending Memphis Center
12:23AM 36.3931 -86.8019 146° Southeast 282 325 6,000 -1,620 Descending Memphis Center
12:24AM 36.3247 -86.7456 146° Southeast 277 319 4,300 -1,440 Descending Memphis Center
12:25AM 36.2672 -86.7044 150° Southeast 262 302 3,200 -1,140 Descending Memphis Center
12:26AM 36.2203 -86.6653 146° Southeast 220 253 2,100 -840 Descending Memphis Center
12:27AM 36.1867 -86.6592 172° South 154 177 1,600 -600 Descending Memphis Center
12:28AM 36.1539 -86.6733 199° South 122 140 1,000 -480 Descending Memphis Center
12:29AM 36.1250 -86.6800 191° South 122 140 700 -300 Descending Memphis Center
12:31AM 36.1245 -86.6782 90° East  Level Estimated
12:38AM 36.1245 -86.6782 90° East  Level Estimated
12:39AM 36.1245 -86.6782 90° East  Level Estimated
12:40AM 36.1245 -86.6782 90° East  Level Estimated
12:41AM 36.1245 -86.6782 90° East  Level Estimated
12:42AM 36.1245 -86.6782 90° East  Level Estimated
12:43AM 36.1245 -86.6782 90° East  Level Estimated
12:44AM 36.1245 -86.6782 90° East  Level Estimated
12:45AM 36.1245 -86.6782 90° East  Level Estimated